createdAt,value
2023-05-10T00:00:16.571Z,250.00
2023-05-10T00:01:16.386Z,249.94
2023-05-10T00:02:16.467Z,248.72
2023-05-10T00:03:16.427Z,248.39
2023-05-10T00:04:16.439Z,247.95
2023-05-10T00:05:16.333Z,247.72
2023-05-10T00:06:16.311Z,246.43
2023-05-10T00:07:16.326Z,245.12
2023-05-10T00:08:16.316Z,244.63
2023-05-10T00:09:16.280Z,245.81
2023-05-10T00:10:16.504Z,244.14
2023-05-10T00:11:16.192Z,240.74
2023-05-10T00:12:16.118Z,235.26
2023-05-10T00:13:16.087Z,228.83
2023-05-10T00:14:16.026Z,227.82
2023-05-10T00:15:15.969Z,227.75
2023-05-10T00:16:15.938Z,229.27
2023-05-10T00:17:15.897Z,231.46
2023-05-10T00:18:15.861Z,233.65
2023-05-10T00:19:16.089Z,235.24
2023-05-10T00:20:16.010Z,237.80
2023-05-10T00:21:15.720Z,239.09
2023-05-10T00:22:15.742Z,240.23
2023-05-10T00:23:15.768Z,240.48
2023-05-10T00:24:15.604Z,239.07
2023-05-10T00:25:15.553Z,240.26
2023-05-10T00:26:15.506Z,242.41
2023-05-10T00:27:15.495Z,242.40
2023-05-10T00:28:15.414Z,242.19
2023-05-10T00:29:15.360Z,239.46
2023-05-10T00:30:15.453Z,238.57
2023-05-10T00:31:15.257Z,237.91
2023-05-10T00:32:15.248Z,239.51
2023-05-10T00:33:15.140Z,238.80
2023-05-10T00:34:15.084Z,237.44
2023-05-10T00:35:15.048Z,238.31
2023-05-10T00:36:14.975Z,240.63
2023-05-10T00:37:14.944Z,244.22
2023-05-10T00:38:14.877Z,245.35
2023-05-10T00:39:14.814Z,243.57
2023-05-10T00:40:15.037Z,239.22
2023-05-10T00:41:14.719Z,235.52
2023-05-10T00:42:14.693Z,231.95
2023-05-10T00:43:14.642Z,231.25
2023-05-10T00:44:14.598Z,233.78
2023-05-10T00:45:14.544Z,235.55
2023-05-10T00:46:14.544Z,236.75
2023-05-10T00:47:14.430Z,237.61
2023-05-10T00:48:14.395Z,238.37
2023-05-10T00:49:14.325Z,240.81
2023-05-10T00:50:14.619Z,241.26
2023-05-10T00:51:14.395Z,238.72
2023-05-10T00:52:14.166Z,236.51
2023-05-10T00:53:14.169Z,236.08
2023-05-10T00:54:14.083Z,234.46
2023-05-10T00:55:14.038Z,234.57
2023-05-10T00:56:14.010Z,236.26
2023-05-10T00:57:13.967Z,233.96
2023-05-10T00:58:13.920Z,228.23
2023-05-10T00:59:13.878Z,225.08
2023-05-10T01:00:13.992Z,222.75
2023-05-10T01:01:13.816Z,223.66
2023-05-10T01:02:13.828Z,223.66
2023-05-10T01:03:13.839Z,222.58
2023-05-10T01:04:13.675Z,218.14
2023-05-10T01:05:13.655Z,215.87
2023-05-10T01:06:13.579Z,214.66
2023-05-10T01:07:13.531Z,210.46
2023-05-10T01:08:13.500Z,205.49
2023-05-10T01:09:13.454Z,205.84
2023-05-10T01:10:13.567Z,206.36
2023-05-10T01:11:13.422Z,201.06
2023-05-10T01:12:13.400Z,198.32
2023-05-10T01:13:13.437Z,198.75
2023-05-10T01:14:13.340Z,199.46
2023-05-10T01:15:13.313Z,201.06
2023-05-10T01:16:13.388Z,199.86
2023-05-10T01:17:13.284Z,197.28
2023-05-10T01:18:13.266Z,192.93
2023-05-10T01:19:13.243Z,193.38
2023-05-10T01:20:13.234Z,191.27
2023-05-10T01:21:13.221Z,186.02
2023-05-10T01:22:13.233Z,180.92
2023-05-10T01:23:13.226Z,179.16
2023-05-10T01:24:13.190Z,175.62
2023-05-10T01:25:13.165Z,173.22
2023-05-10T01:26:13.129Z,170.01
2023-05-10T01:27:13.097Z,169.54
2023-05-10T01:28:13.053Z,168.44
2023-05-10T01:29:13.041Z,165.68
2023-05-10T01:30:15.309Z,166.53
2023-05-10T01:31:12.993Z,167.16
2023-05-10T01:32:12.885Z,168.75
2023-05-10T01:33:12.852Z,169.61
2023-05-10T01:34:12.795Z,164.64
2023-05-10T01:35:12.738Z,164.70
2023-05-10T01:36:12.693Z,163.55
2023-05-10T01:37:12.658Z,162.25
2023-05-10T01:38:12.608Z,160.73
2023-05-10T01:39:12.545Z,160.62
2023-05-10T01:40:12.506Z,158.07
2023-05-10T01:41:12.460Z,157.33
2023-05-10T01:42:12.442Z,159.04
2023-05-10T01:43:12.374Z,159.11
2023-05-10T01:44:12.339Z,157.68
2023-05-10T01:45:12.317Z,152.30
2023-05-10T01:46:12.334Z,150.20
2023-05-10T01:47:12.211Z,153.52
2023-05-10T01:48:12.217Z,157.50
2023-05-10T01:49:12.115Z,160.05
2023-05-10T01:50:12.073Z,163.77
2023-05-10T01:51:12.037Z,163.79
2023-05-10T01:52:11.977Z,162.62
2023-05-10T01:53:11.931Z,163.01
2023-05-10T01:54:11.884Z,164.24
2023-05-10T01:55:11.872Z,165.89
2023-05-10T01:56:11.802Z,165.93
2023-05-10T01:57:11.749Z,164.42
2023-05-10T01:58:11.917Z,162.49
2023-05-10T01:59:12.066Z,162.90
2023-05-10T02:00:12.233Z,162.85
2023-05-10T02:01:12.195Z,162.45
2023-05-10T02:02:12.130Z,157.35
2023-05-10T02:03:12.158Z,156.24
2023-05-10T02:04:12.116Z,152.53
2023-05-10T02:05:11.992Z,150.38
2023-05-10T02:06:11.944Z,150.84
2023-05-10T02:07:11.887Z,154.93
2023-05-10T02:08:11.888Z,156.17
2023-05-10T02:09:11.864Z,154.68
2023-05-10T02:10:11.926Z,153.19
2023-05-10T02:11:12.061Z,150.57
2023-05-10T02:12:12.147Z,153.05
2023-05-10T02:13:12.478Z,154.35
2023-05-10T02:14:12.634Z,153.76
2023-05-10T02:15:12.816Z,154.69
2023-05-10T02:16:13.039Z,157.13
2023-05-10T02:17:13.189Z,153.85
2023-05-10T02:18:13.300Z,150.27
2023-05-10T02:19:13.402Z,151.62
2023-05-10T02:20:13.847Z,152.96
2023-05-10T02:21:13.728Z,157.76
2023-05-10T02:22:13.626Z,156.23
2023-05-10T02:23:13.609Z,159.42
2023-05-10T02:24:13.587Z,162.40
2023-05-10T02:25:13.564Z,163.32
2023-05-10T02:26:13.543Z,164.92
2023-05-10T02:27:13.526Z,168.02
2023-05-10T02:28:13.552Z,169.92
2023-05-10T02:29:13.565Z,171.63
2023-05-10T02:30:13.660Z,169.09
2023-05-10T02:31:13.579Z,168.34
2023-05-10T02:32:13.777Z,167.13
2023-05-10T02:33:13.638Z,164.82
2023-05-10T02:34:13.667Z,163.61
2023-05-10T02:35:13.702Z,162.19
2023-05-10T02:36:13.710Z,161.59
2023-05-10T02:37:13.728Z,162.19
2023-05-10T02:38:13.772Z,163.61
2023-05-10T02:39:13.816Z,166.16
2023-05-10T02:40:13.810Z,163.55
2023-05-10T02:41:13.848Z,154.33
2023-05-10T02:42:13.855Z,153.43
2023-05-10T02:43:13.891Z,154.72
2023-05-10T02:44:13.918Z,155.76
2023-05-10T02:45:13.957Z,156.19
2023-05-10T02:46:14.040Z,157.68
2023-05-10T02:47:13.995Z,160.38
2023-05-10T02:48:14.019Z,161.23
2023-05-10T02:49:14.005Z,159.75
2023-05-10T02:50:14.260Z,160.93
2023-05-10T02:51:14.061Z,165.02
2023-05-10T02:52:14.167Z,163.48
2023-05-10T02:53:14.138Z,160.22
2023-05-10T02:54:14.138Z,159.90
2023-05-10T02:55:14.172Z,162.21
2023-05-10T02:56:14.192Z,161.73
2023-05-10T02:57:14.202Z,163.05
2023-05-10T02:58:14.226Z,163.41
2023-05-10T02:59:14.271Z,165.66
2023-05-10T03:00:14.469Z,165.91
2023-05-10T03:01:14.350Z,162.71
2023-05-10T03:02:14.358Z,162.32
2023-05-10T03:03:14.394Z,162.27
2023-05-10T03:04:14.455Z,164.26
2023-05-10T03:05:14.447Z,164.02
2023-05-10T03:06:14.482Z,163.40
2023-05-10T03:07:14.502Z,164.63
2023-05-10T03:08:14.512Z,158.41
2023-05-10T03:09:14.537Z,154.29
2023-05-10T03:10:14.934Z,149.43
2023-05-10T03:11:14.577Z,146.83
2023-05-10T03:12:14.580Z,148.43
2023-05-10T03:13:14.703Z,148.89
2023-05-10T03:14:14.639Z,147.21
2023-05-10T03:15:14.659Z,147.88
2023-05-10T03:16:14.686Z,145.54
2023-05-10T03:17:14.654Z,142.67
2023-05-10T03:18:14.655Z,144.35
2023-05-10T03:19:14.673Z,148.96
2023-05-10T03:20:14.820Z,151.17
2023-05-10T03:21:14.696Z,147.44
2023-05-10T03:22:14.732Z,147.02
2023-05-10T03:23:14.790Z,150.46
2023-05-10T03:24:14.802Z,152.67
2023-05-10T03:25:14.868Z,153.16
2023-05-10T03:26:14.928Z,158.09
2023-05-10T03:27:14.901Z,158.63
2023-05-10T03:28:14.931Z,155.39
2023-05-10T03:29:14.970Z,155.56
2023-05-10T03:30:15.228Z,155.64
2023-05-10T03:31:15.061Z,159.98
2023-05-10T03:32:15.062Z,164.23
2023-05-10T03:33:15.145Z,162.72
2023-05-10T03:34:15.127Z,157.19
2023-05-10T03:35:15.206Z,151.37
2023-05-10T03:36:15.176Z,146.29
2023-05-10T03:37:15.161Z,145.25
2023-05-10T03:38:15.158Z,149.92
2023-05-10T03:39:15.163Z,151.10
2023-05-10T03:40:15.327Z,148.16
2023-05-10T03:41:15.187Z,147.69
2023-05-10T03:42:15.220Z,145.12
2023-05-10T03:43:15.249Z,146.64
2023-05-10T03:44:15.216Z,147.06
2023-05-10T03:45:15.185Z,153.00
2023-05-10T03:46:15.211Z,153.79
2023-05-10T03:47:15.150Z,148.80
2023-05-10T03:48:15.139Z,147.09
2023-05-10T03:49:15.121Z,148.96
2023-05-10T03:50:15.341Z,150.86
2023-05-10T03:51:15.071Z,154.82
2023-05-10T03:52:15.046Z,159.27
2023-05-10T03:53:15.007Z,156.79
2023-05-10T03:54:14.987Z,153.92
2023-05-10T03:55:14.958Z,154.44
2023-05-10T03:56:14.963Z,155.05
2023-05-10T03:57:15.002Z,153.82
2023-05-10T03:58:14.996Z,152.79
2023-05-10T03:59:15.003Z,152.17
2023-05-10T04:00:15.224Z,154.36
2023-05-10T04:01:15.026Z,154.81
2023-05-10T04:02:15.072Z,155.30
2023-05-10T04:03:15.061Z,157.43
2023-05-10T04:04:15.030Z,159.17
2023-05-10T04:05:15.092Z,163.23
2023-05-10T04:06:15.277Z,164.47
2023-05-10T04:07:15.363Z,164.63
2023-05-10T04:08:15.500Z,164.00
2023-05-10T04:09:15.666Z,164.37
2023-05-10T04:10:16.148Z,165.79
2023-05-10T04:11:15.840Z,166.51
2023-05-10T04:12:15.877Z,166.93
2023-05-10T04:13:15.919Z,164.75
2023-05-10T04:14:15.875Z,163.85
2023-05-10T04:15:15.882Z,167.97
2023-05-10T04:16:15.895Z,169.66
2023-05-10T04:17:15.888Z,170.30
2023-05-10T04:18:15.823Z,170.58
2023-05-10T04:19:15.815Z,172.18
2023-05-10T04:20:16.082Z,168.54
2023-05-10T04:21:15.757Z,168.89
2023-05-10T04:22:15.755Z,172.54
2023-05-10T04:23:15.746Z,174.01
2023-05-10T04:24:15.770Z,169.58
2023-05-10T04:25:15.768Z,169.55
2023-05-10T04:26:15.782Z,170.00
2023-05-10T04:27:15.812Z,165.77
2023-05-10T04:28:15.838Z,165.26
2023-05-10T04:29:15.853Z,170.98
2023-05-10T04:30:15.990Z,173.04
2023-05-10T04:31:15.904Z,172.84
2023-05-10T04:32:15.837Z,174.20
2023-05-10T04:33:15.836Z,173.70
2023-05-10T04:34:15.849Z,173.55
2023-05-10T04:35:15.832Z,171.91
2023-05-10T04:36:15.832Z,164.69
2023-05-10T04:37:15.787Z,166.89
2023-05-10T04:38:15.765Z,168.41
2023-05-10T04:39:15.756Z,165.66
2023-05-10T04:40:15.926Z,159.81
2023-05-10T04:41:15.705Z,157.31
2023-05-10T04:42:15.702Z,158.24
2023-05-10T04:43:15.677Z,161.33
2023-05-10T04:44:15.659Z,167.49
2023-05-10T04:45:15.742Z,173.14
2023-05-10T04:46:15.901Z,164.79
2023-05-10T04:47:16.025Z,158.66
2023-05-10T04:48:16.138Z,159.73
2023-05-10T04:49:16.257Z,160.34
2023-05-10T04:50:16.680Z,161.79
2023-05-10T04:51:16.618Z,161.43
2023-05-10T04:52:16.787Z,165.78
2023-05-10T04:53:16.888Z,170.19
2023-05-10T04:54:16.997Z,170.48
2023-05-10T04:55:17.116Z,166.52
2023-05-10T04:56:17.248Z,163.15
2023-05-10T04:57:17.368Z,164.45
2023-05-10T04:58:17.529Z,165.57
2023-05-10T04:59:17.694Z,166.59
2023-05-10T05:00:18.037Z,161.58
2023-05-10T05:01:17.808Z,158.95
2023-05-10T05:02:17.751Z,161.55
2023-05-10T05:03:17.799Z,162.79
2023-05-10T05:04:17.719Z,163.79
2023-05-10T05:05:17.684Z,162.54
2023-05-10T05:06:17.632Z,160.06
2023-05-10T05:07:17.750Z,161.55
2023-05-10T05:08:17.868Z,162.57
2023-05-10T05:09:18.001Z,166.04
2023-05-10T05:10:18.529Z,167.05
2023-05-10T05:11:18.353Z,170.02
2023-05-10T05:12:18.295Z,172.60
2023-05-10T05:13:18.300Z,174.64
2023-05-10T05:14:18.219Z,173.08
2023-05-10T05:15:18.200Z,169.56
2023-05-10T05:16:18.262Z,170.57
2023-05-10T05:17:18.137Z,173.48
2023-05-10T05:18:18.121Z,177.80
2023-05-10T05:19:18.101Z,173.49
2023-05-10T05:20:18.312Z,169.08
2023-05-10T05:21:18.074Z,165.33
2023-05-10T05:22:19.606Z,162.61
2023-05-10T05:23:18.023Z,160.76
2023-05-10T05:24:18.068Z,161.37
2023-05-10T05:25:17.985Z,162.12
2023-05-10T05:26:17.992Z,165.65
2023-05-10T05:27:17.986Z,169.29
2023-05-10T05:28:17.984Z,171.74
2023-05-10T05:29:18.095Z,173.15
2023-05-10T05:30:18.400Z,175.77
2023-05-10T05:31:18.225Z,180.51
2023-05-10T05:32:18.181Z,184.16
2023-05-10T05:33:18.165Z,185.55
2023-05-10T05:34:18.172Z,185.61
2023-05-10T05:35:18.345Z,185.05
2023-05-10T05:36:18.097Z,183.93
2023-05-10T05:37:18.082Z,181.22
2023-05-10T05:38:18.073Z,180.31
2023-05-10T05:39:18.071Z,180.12
2023-05-10T05:40:18.045Z,185.47
2023-05-10T05:41:18.006Z,187.65
2023-05-10T05:42:18.004Z,184.31
2023-05-10T05:43:18.010Z,179.96
2023-05-10T05:44:18.066Z,174.06
2023-05-10T05:45:18.376Z,173.82
2023-05-10T05:46:18.117Z,175.65
2023-05-10T05:47:17.930Z,178.33
2023-05-10T05:48:18.027Z,181.47
2023-05-10T05:49:17.966Z,182.32
2023-05-10T05:50:18.079Z,184.59
2023-05-10T05:51:18.165Z,190.02
2023-05-10T05:52:18.481Z,193.66
2023-05-10T05:53:18.611Z,193.33
2023-05-10T05:54:18.759Z,190.42
2023-05-10T05:55:19.094Z,191.37
2023-05-10T05:56:18.926Z,190.93
2023-05-10T05:57:18.892Z,193.86
2023-05-10T05:58:19.629Z,196.43
2023-05-10T05:59:19.677Z,199.45
2023-05-10T06:00:19.631Z,198.38
2023-05-10T06:01:18.834Z,197.57
2023-05-10T06:02:18.826Z,196.15
2023-05-10T06:03:18.935Z,197.04
2023-05-10T06:04:18.806Z,195.98
2023-05-10T06:05:18.804Z,193.63
2023-05-10T06:06:18.733Z,188.91
2023-05-10T06:07:18.720Z,184.07
2023-05-10T06:08:18.677Z,181.20
2023-05-10T06:09:18.667Z,182.63
2023-05-10T06:10:18.634Z,175.13
2023-05-10T06:11:18.623Z,171.58
2023-05-10T06:12:18.597Z,170.44
2023-05-10T06:13:18.656Z,175.68
2023-05-10T06:14:18.592Z,180.36
2023-05-10T06:15:18.700Z,181.06
2023-05-10T06:16:18.613Z,181.65
2023-05-10T06:17:18.575Z,178.03
2023-05-10T06:18:18.587Z,173.62
2023-05-10T06:19:18.653Z,177.32
2023-05-10T06:20:18.634Z,178.84
2023-05-10T06:21:18.625Z,177.76
2023-05-10T06:22:18.660Z,166.55
2023-05-10T06:23:18.670Z,163.25
2023-05-10T06:24:18.705Z,160.24
2023-05-10T06:25:18.837Z,149.08
2023-05-10T06:26:18.675Z,139.73
2023-05-10T06:27:18.703Z,138.69
2023-05-10T06:28:18.807Z,142.11
2023-05-10T06:29:18.931Z,140.57
2023-05-10T06:30:19.047Z,145.14
2023-05-10T06:31:19.394Z,145.52
2023-05-10T06:32:19.409Z,145.47
2023-05-10T06:33:19.567Z,147.72
2023-05-10T06:34:19.712Z,147.91
2023-05-10T06:35:19.935Z,151.63
2023-05-10T06:36:19.963Z,158.80
2023-05-10T06:37:20.195Z,167.06
2023-05-10T06:38:20.288Z,172.85
2023-05-10T06:39:20.451Z,176.86
2023-05-10T06:40:20.612Z,177.54
2023-05-10T06:41:22.578Z,175.76
2023-05-10T06:42:20.715Z,169.75
2023-05-10T06:43:20.667Z,166.30
2023-05-10T06:44:20.686Z,164.40
2023-05-10T06:45:20.730Z,162.41
2023-05-10T06:46:20.587Z,157.05
2023-05-10T06:47:20.514Z,155.05
2023-05-10T06:48:20.494Z,159.13
2023-05-10T06:49:20.452Z,162.77
2023-05-10T06:50:20.413Z,170.60
2023-05-10T06:51:20.366Z,177.95
2023-05-10T06:52:20.343Z,182.92
2023-05-10T06:53:20.284Z,185.40
2023-05-10T06:54:20.224Z,184.43
2023-05-10T06:55:20.196Z,187.81
2023-05-10T06:56:20.133Z,181.83
2023-05-10T06:57:31.288Z,173.49
2023-05-10T06:58:21.074Z,169.78
2023-05-10T06:59:20.042Z,172.58
2023-05-10T07:00:20.409Z,171.71
2023-05-10T07:01:20.108Z,174.69
2023-05-10T07:02:19.933Z,176.00
2023-05-10T07:03:19.861Z,177.80
2023-05-10T07:04:19.812Z,165.11
2023-05-10T07:05:20.553Z,136.95
2023-05-10T07:06:32.350Z,130.03
2023-05-10T07:07:20.630Z,130.04
2023-05-10T07:08:19.571Z,130.82
2023-05-10T07:09:19.542Z,131.69
2023-05-10T07:10:19.500Z,133.74
2023-05-10T07:11:19.431Z,141.05
2023-05-10T07:12:19.401Z,146.71
2023-05-10T07:13:19.447Z,154.80
2023-05-10T07:14:19.277Z,154.78
2023-05-10T07:15:21.137Z,154.80
2023-05-10T07:16:20.262Z,154.91
2023-05-10T07:17:19.210Z,144.09
2023-05-10T07:18:19.111Z,133.34
2023-05-10T07:19:19.026Z,133.24
2023-05-10T07:20:18.979Z,132.84
2023-05-10T07:21:18.969Z,131.57
2023-05-10T07:22:19.005Z,138.42
2023-05-10T07:23:18.915Z,149.16
2023-05-10T07:24:18.805Z,162.49
2023-05-10T07:25:18.846Z,174.88
2023-05-10T07:26:18.703Z,197.28
2023-05-10T07:27:18.662Z,219.74
2023-05-10T07:28:18.617Z,220.24
2023-05-10T07:29:18.575Z,206.93
2023-05-10T07:30:18.577Z,184.96
2023-05-10T07:31:18.475Z,168.77
2023-05-10T07:32:18.513Z,162.15
2023-05-10T07:33:18.448Z,163.62
2023-05-10T07:34:18.393Z,157.57
2023-05-10T07:35:18.530Z,144.86
2023-05-10T07:36:18.360Z,148.96
2023-05-10T07:37:18.324Z,155.62
2023-05-10T07:38:18.323Z,172.08
2023-05-10T07:39:26.510Z,186.26
2023-05-10T07:40:19.237Z,186.53
2023-05-10T07:41:18.186Z,187.78
2023-05-10T07:42:18.155Z,190.18
2023-05-10T07:43:18.104Z,198.63
2023-05-10T07:44:18.037Z,220.82
2023-05-10T07:45:18.155Z,232.81
2023-05-10T07:46:17.952Z,235.95
2023-05-10T07:47:17.894Z,213.43
2023-05-10T07:48:17.838Z,209.05
2023-05-10T07:49:17.813Z,164.15
2023-05-10T07:50:17.759Z,121.61
2023-05-10T07:51:17.725Z,115.59
2023-05-10T07:52:17.683Z,124.02
2023-05-10T07:53:17.620Z,144.74
2023-05-10T07:54:17.579Z,116.30
2023-05-10T07:55:17.665Z,79.21
2023-05-10T07:56:17.481Z,84.42
2023-05-10T07:57:17.469Z,108.66
2023-05-10T07:58:17.456Z,143.84
2023-05-10T07:59:17.430Z,167.56
2023-05-10T08:00:17.546Z,142.14
2023-05-10T08:01:17.431Z,139.69
2023-05-10T08:02:17.469Z,143.28
2023-05-10T08:03:17.459Z,142.48
2023-05-10T08:04:17.383Z,160.35
2023-05-10T08:05:17.486Z,186.86
2023-05-10T08:06:17.258Z,207.62
2023-05-10T08:07:17.240Z,217.22
2023-05-10T08:08:17.211Z,233.52
2023-05-10T08:09:17.150Z,249.52
2023-05-10T08:10:17.105Z,250.00
2023-05-10T08:11:17.062Z,243.24
2023-05-10T08:12:16.997Z,250.59
2023-05-10T08:13:16.971Z,236.86
2023-05-10T08:14:16.926Z,214.82
2023-05-10T08:15:16.988Z,210.21
2023-05-10T08:16:16.855Z,162.13
2023-05-10T08:17:18.215Z,125.19
2023-05-10T08:18:16.862Z,126.83
2023-05-10T08:19:16.778Z,139.27
2023-05-10T08:20:16.760Z,152.55
2023-05-10T08:21:16.783Z,126.58
2023-05-10T08:22:16.738Z,85.72
2023-05-10T08:23:16.720Z,69.49
2023-05-10T08:24:16.726Z,63.85
2023-05-10T08:25:16.964Z,67.02
2023-05-10T08:26:16.763Z,86.54
2023-05-10T08:27:16.762Z,84.44
2023-05-10T08:28:16.763Z,86.69
2023-05-10T08:29:16.714Z,88.57
2023-05-10T08:30:16.695Z,90.78
2023-05-10T08:31:16.827Z,98.98
2023-05-10T08:32:16.777Z,109.61
2023-05-10T08:33:16.996Z,128.72
2023-05-10T08:34:17.136Z,129.23
2023-05-10T08:35:17.513Z,123.20
2023-05-10T08:36:17.303Z,168.99
2023-05-10T08:37:18.158Z,198.18
2023-05-10T08:38:17.546Z,190.68
2023-05-10T08:39:29.291Z,190.42
2023-05-10T08:40:18.453Z,190.60
2023-05-10T08:41:17.387Z,192.13
2023-05-10T08:42:17.304Z,193.93
2023-05-10T08:43:18.679Z,195.55
2023-05-10T08:44:17.173Z,186.93
2023-05-10T08:45:17.379Z,169.71
2023-05-10T08:46:17.071Z,167.06
2023-05-10T08:47:17.028Z,171.10
2023-05-10T08:48:16.936Z,178.69
2023-05-10T08:49:16.871Z,183.48
2023-05-10T08:50:16.847Z,188.67
2023-05-10T08:51:16.791Z,189.54
2023-05-10T08:52:16.712Z,186.41
2023-05-10T08:53:16.642Z,185.53
2023-05-10T08:54:16.584Z,191.43
2023-05-10T08:55:17.751Z,177.82
2023-05-10T08:56:16.455Z,173.54
2023-05-10T08:57:16.412Z,168.89
2023-05-10T08:58:16.333Z,160.56
2023-05-10T08:59:16.259Z,154.63
2023-05-10T09:00:16.311Z,132.83
2023-05-10T09:01:16.206Z,105.93
2023-05-10T09:02:17.378Z,104.45
2023-05-10T09:03:16.228Z,115.40
2023-05-10T09:04:16.293Z,125.51
2023-05-10T09:05:16.307Z,146.57
2023-05-10T09:06:16.724Z,166.37
2023-05-10T09:07:16.031Z,141.55
2023-05-10T09:08:15.974Z,120.76
2023-05-10T09:09:15.937Z,135.21
2023-05-10T09:10:15.930Z,167.14
2023-05-10T09:11:15.895Z,185.70
2023-05-10T09:12:16.718Z,191.31
2023-05-10T09:13:15.843Z,190.49
2023-05-10T09:14:15.864Z,173.62
2023-05-10T09:15:16.015Z,124.93
2023-05-10T09:16:21.804Z,117.23
2023-05-10T09:17:16.756Z,117.40
2023-05-10T09:18:15.698Z,118.02
2023-05-10T09:19:15.616Z,116.11
2023-05-10T09:20:15.497Z,61.49
2023-05-10T09:21:15.462Z,45.41
2023-05-10T09:22:15.389Z,49.07
2023-05-10T09:23:15.334Z,52.99
2023-05-10T09:24:15.288Z,27.13
2023-05-10T09:25:15.392Z,5.66
2023-05-10T09:26:15.187Z,20.48
2023-05-10T09:27:15.137Z,50.53
2023-05-10T09:28:15.069Z,47.51
2023-05-10T09:29:16.008Z,52.26
2023-05-10T09:30:14.955Z,83.21
2023-05-10T09:31:14.930Z,121.95
2023-05-10T09:32:14.881Z,113.72
2023-05-10T09:33:15.768Z,103.09
2023-05-10T09:34:14.762Z,115.59
2023-05-10T09:35:14.867Z,105.80
2023-05-10T09:36:14.672Z,73.67
2023-05-10T09:37:14.642Z,60.46
2023-05-10T09:38:14.590Z,61.06
2023-05-10T09:39:14.546Z,58.89
2023-05-10T09:40:14.497Z,45.13
2023-05-10T09:41:14.469Z,40.01
2023-05-10T09:42:14.463Z,28.35
2023-05-10T09:43:14.437Z,24.31
2023-05-10T09:44:14.415Z,25.05
2023-05-10T09:45:14.615Z,25.14
2023-05-10T09:46:14.535Z,25.22
2023-05-10T09:47:14.392Z,32.06
2023-05-10T09:48:14.418Z,31.87
2023-05-10T09:49:14.352Z,32.95
2023-05-10T09:50:14.346Z,41.01
2023-05-10T09:51:14.303Z,44.96
2023-05-10T09:52:14.296Z,40.70
2023-05-10T09:53:14.281Z,29.68
2023-05-10T09:54:14.295Z,26.32
2023-05-10T09:55:14.419Z,26.43
2023-05-10T09:56:14.239Z,33.79
2023-05-10T09:57:14.220Z,44.15
2023-05-10T09:58:14.229Z,51.70
2023-05-10T09:59:14.188Z,51.11
2023-05-10T10:00:14.187Z,47.13
2023-05-10T10:01:14.151Z,51.64
2023-05-10T10:02:14.111Z,40.00
2023-05-10T10:03:14.114Z,37.29
2023-05-10T10:04:14.096Z,35.38
2023-05-10T10:05:14.242Z,27.50
2023-05-10T10:06:26.410Z,26.00
2023-05-10T10:07:15.051Z,23.79
2023-05-10T10:08:14.073Z,19.47
2023-05-10T10:09:13.954Z,26.78
2023-05-10T10:10:13.901Z,31.68
2023-05-10T10:11:13.862Z,19.33
2023-05-10T10:12:13.803Z,16.98
2023-05-10T10:13:13.767Z,25.61
2023-05-10T10:14:13.721Z,26.10
2023-05-10T10:15:15.978Z,26.92
2023-05-10T10:16:13.740Z,41.16
2023-05-10T10:17:13.556Z,73.34
2023-05-10T10:18:13.507Z,87.05
2023-05-10T10:19:13.443Z,48.86
2023-05-10T10:20:13.436Z,37.84
2023-05-10T10:21:13.353Z,34.93
2023-05-10T10:22:13.316Z,53.96
2023-05-10T10:23:14.184Z,75.36
2023-05-10T10:24:13.310Z,75.51
2023-05-10T10:25:13.266Z,62.94
2023-05-10T10:26:13.285Z,36.90
2023-05-10T10:27:13.269Z,23.14
2023-05-10T10:28:13.230Z,28.85
2023-05-10T10:29:13.202Z,26.82
2023-05-10T10:30:13.195Z,33.03
2023-05-10T10:31:13.211Z,25.11
2023-05-10T10:32:13.182Z,19.75
2023-05-10T10:33:27.361Z,24.34
2023-05-10T10:34:14.265Z,15.97
2023-05-10T10:35:13.141Z,24.47
2023-05-10T10:36:13.097Z,26.84
2023-05-10T10:37:13.055Z,28.59
2023-05-10T10:38:13.015Z,24.16
2023-05-10T10:39:12.986Z,25.73
2023-05-10T10:40:12.944Z,26.19
2023-05-10T10:41:12.953Z,25.17
2023-05-10T10:42:12.932Z,26.32
2023-05-10T10:43:12.917Z,34.30
2023-05-10T10:44:12.909Z,25.17
2023-05-10T10:45:12.957Z,25.00
2023-05-10T10:46:12.988Z,25.77
2023-05-10T10:47:13.125Z,32.26
2023-05-10T10:48:12.927Z,24.50
2023-05-10T10:49:12.936Z,25.17
2023-05-10T10:50:12.944Z,30.74
2023-05-10T10:51:13.128Z,34.23
2023-05-10T10:52:12.918Z,42.19
2023-05-10T10:53:13.021Z,52.35
2023-05-10T10:54:12.952Z,55.89
2023-05-10T10:55:12.935Z,57.23
2023-05-10T10:56:12.948Z,60.24
2023-05-10T10:57:12.904Z,61.69
2023-05-10T10:58:12.909Z,52.05
2023-05-10T10:59:12.889Z,45.30
2023-05-10T11:00:12.855Z,46.43
2023-05-10T11:01:12.872Z,54.62
2023-05-10T11:02:12.855Z,67.16
2023-05-10T11:03:12.880Z,65.67
2023-05-10T11:04:12.905Z,59.31
2023-05-10T11:05:12.913Z,56.42
2023-05-10T11:06:12.944Z,56.89
2023-05-10T11:07:12.943Z,59.48
2023-05-10T11:08:12.959Z,60.27
2023-05-10T11:09:12.984Z,57.61
2023-05-10T11:10:13.008Z,41.37
2023-05-10T11:11:12.996Z,37.10
2023-05-10T11:12:13.015Z,39.91
2023-05-10T11:13:13.039Z,43.85
2023-05-10T11:14:13.054Z,41.74
2023-05-10T11:15:13.051Z,38.82
2023-05-10T11:16:13.088Z,44.45
2023-05-10T11:17:13.176Z,42.46
2023-05-10T11:18:13.060Z,41.17
2023-05-10T11:19:13.193Z,34.76
2023-05-10T11:20:13.099Z,27.55
2023-05-10T11:21:13.054Z,32.39
2023-05-10T11:22:13.021Z,34.96
2023-05-10T11:23:13.018Z,42.79
2023-05-10T11:24:13.001Z,38.62
2023-05-10T11:25:13.003Z,36.08
2023-05-10T11:26:12.980Z,39.45
2023-05-10T11:27:12.949Z,39.63
2023-05-10T11:28:12.946Z,42.53
2023-05-10T11:29:12.936Z,48.76
2023-05-10T11:30:12.990Z,52.50
2023-05-10T11:31:13.044Z,53.32
2023-05-10T11:32:12.937Z,40.49
2023-05-10T11:33:12.933Z,35.28
2023-05-10T11:34:12.954Z,42.05
2023-05-10T11:35:12.976Z,45.86
2023-05-10T11:36:12.981Z,41.36
2023-05-10T11:37:12.954Z,38.06
2023-05-10T11:38:12.940Z,41.26
2023-05-10T11:39:12.936Z,33.60
2023-05-10T11:40:12.923Z,27.66
2023-05-10T11:41:13.019Z,29.79
2023-05-10T11:42:12.944Z,30.99
2023-05-10T11:43:12.939Z,34.06
2023-05-10T11:44:12.944Z,35.99
2023-05-10T11:45:12.920Z,36.85
2023-05-10T11:46:13.048Z,30.67
2023-05-10T11:47:14.820Z,33.26
2023-05-10T11:48:12.921Z,32.32
2023-05-10T11:49:12.903Z,25.11
2023-05-10T11:50:12.949Z,25.04
2023-05-10T11:51:12.868Z,26.23
2023-05-10T11:52:12.853Z,28.41
2023-05-10T11:53:12.833Z,26.61
2023-05-10T11:54:12.857Z,20.10
2023-05-10T11:55:12.920Z,24.28
2023-05-10T11:56:12.941Z,27.00
2023-05-10T11:57:12.984Z,41.55
2023-05-10T11:58:13.001Z,46.25
2023-05-10T11:59:13.038Z,45.54
2023-05-10T12:00:13.096Z,51.53
2023-05-10T12:01:13.065Z,57.81
2023-05-10T12:02:13.074Z,66.51
2023-05-10T12:03:13.148Z,72.21
2023-05-10T12:04:13.332Z,74.83
2023-05-10T12:05:13.085Z,74.66
2023-05-10T12:06:13.072Z,81.83
2023-05-10T12:07:13.078Z,92.96
2023-05-10T12:08:13.102Z,109.73
2023-05-10T12:09:13.044Z,131.16
2023-05-10T12:10:13.054Z,136.86
2023-05-10T12:11:13.030Z,142.40
2023-05-10T12:12:12.998Z,116.91
2023-05-10T12:13:13.002Z,105.59
2023-05-10T12:14:12.985Z,86.81
2023-05-10T12:15:13.001Z,75.78
2023-05-10T12:16:13.013Z,67.52
2023-05-10T12:17:12.969Z,68.26
2023-05-10T12:18:13.025Z,71.86
2023-05-10T12:19:13.006Z,80.73
2023-05-10T12:20:12.959Z,89.69
2023-05-10T12:21:12.943Z,93.29
2023-05-10T12:22:12.912Z,90.65
2023-05-10T12:23:12.891Z,89.11
2023-05-10T12:24:12.859Z,89.85
2023-05-10T12:25:12.834Z,79.32
2023-05-10T12:26:12.821Z,60.32
2023-05-10T12:27:12.797Z,52.40
2023-05-10T12:28:12.819Z,59.32
2023-05-10T12:29:12.741Z,73.87
2023-05-10T12:30:12.758Z,93.55
2023-05-10T12:31:12.698Z,108.94
2023-05-10T12:32:12.717Z,96.79
2023-05-10T12:33:12.709Z,92.68
2023-05-10T12:34:12.617Z,79.16